Terminal Aerodrome Forecast
Issued by NWS

Home | Current Version | Previous Version | Graphics & Text | Print | Product List | Glossary On
Versions: 1 2 3 4 5 6 7 8 9 10 11 12 13 14 15 16 17 18 19 20 21 22 23 24 25
079
FTUS43 KICT 270702 AAA
TAFSLN
TAF AMD
KSLN 270702Z 2707/2806 VRB03KT P6SM VCTS SCT030 BKN070CB
      TEMPO 2707/2709 VRB26G35KT 3SM +TSRA BKN025CB
     FM270900 VRB03KT P6SM VCTS BKN070CB
     FM271100 00000KT P6SM SCT070
     FM271400 15007KT P6SM BKN080=

USA.gov is the U.S. government's official web portal to all federal, state and local government web resources and services.